Time;durP1;ratioP1;P1;durP2;ratioP2;P2;SDS_P1;SDS_P2;PMS_P1;PMS_P2;Temp;Humidity;BMP_temperature;BMP_pressure;BME280_temperature;BME280_humidity;BME280_pressure;Samples;Min_cycle;Max_cycle;Signal;HPM_P1;HPM_P2
2023/12/21 00:00:39;;;;;;;;;;;9.50;99.90;;;;;;8437414;28;19932;-71
2023/12/21 00:04:41;;;;;;;;;;;9.50;99.90;;;;;;8457674;27;19924;-71
2023/12/21 00:08:43;;;;;;;;;;;9.50;99.90;;;;;;8436602;28;19985;-71
2023/12/21 00:12:44;;;;;;;;;;;9.50;99.90;;;;;;8429840;28;19931;-71
2023/12/21 00:16:46;;;;;;;;;;;9.60;99.90;;;;;;8435056;28;19924;-71
2023/12/21 00:20:48;;;;;;;;;;;9.60;99.90;;;;;;8429587;28;19924;-72
2023/12/21 00:24:50;;;;;;;;;;;9.60;99.90;;;;;;8423092;28;19932;-71
2023/12/21 00:28:51;;;;;;;;;;;9.60;99.90;;;;;;8416922;28;20406;-72
2023/12/21 00:32:53;;;;;;;;;;;9.70;99.90;;;;;;8422252;28;20015;-71
2023/12/21 00:36:55;;;;;;;;;;;9.70;99.90;;;;;;8428578;28;19933;-71
2023/12/21 00:40:59;;;;;;;;;;;9.70;99.90;;;;;;8449014;27;21359;-71
2023/12/21 00:45:00;;;;;;;;;;;9.80;99.90;;;;;;8422878;28;20386;-71
2023/12/21 00:49:02;;;;;;;;;;;9.80;99.90;;;;;;8434188;28;20371;-71
2023/12/21 00:53:04;;;;;;;;;;;9.80;99.90;;;;;;8431258;28;20302;-71
2023/12/21 00:57:06;;;;;;;;;;;9.80;99.90;;;;;;8422255;28;19928;-71
2023/12/21 01:01:10;;;;;;;;;;;9.80;99.90;;;;;;8431774;28;20318;-71
2023/12/21 01:05:11;;;;;;;;;;;9.90;99.90;;;;;;8419468;28;20414;-71
2023/12/21 01:09:13;;;;;;;;;;;9.90;99.90;;;;;;8425417;28;19932;-71
2023/12/21 01:13:15;;;;;;;;;;;9.90;99.90;;;;;;8431945;28;19931;-71
2023/12/21 01:17:16;;;;;;;;;;;9.90;99.90;;;;;;8430099;28;19924;-71
2023/12/21 01:21:18;;;;;;;;;;;9.90;99.90;;;;;;8426128;28;19924;-71
2023/12/21 01:25:20;;;;;;;;;;;9.90;99.90;;;;;;8429803;28;19970;-71
2023/12/21 01:29:21;;;;;;;;;;;9.90;99.90;;;;;;8422166;28;19957;-71
2023/12/21 01:33:23;;;;;;;;;;;9.90;99.90;;;;;;8416436;28;19972;-72
2023/12/21 01:37:25;;;;;;;;;;;9.90;99.90;;;;;;8428102;28;19924;-71
2023/12/21 01:51:27;;;;;;;;;;;9.90;99.90;;;;;;8417569;28;21783;-71
2023/12/21 01:55:29;;;;;;;;;;;9.90;99.90;;;;;;8426740;28;19925;-71
2023/12/21 01:59:31;;;;;;;;;;;10.00;99.90;;;;;;8422047;28;19935;-71
2023/12/21 02:03:33;;;;;;;;;;;10.00;99.90;;;;;;8422848;28;19992;-71
2023/12/21 02:07:34;;;;;;;;;;;10.00;99.90;;;;;;8426615;28;20384;-71
2023/12/21 02:11:36;;;;;;;;;;;10.00;99.90;;;;;;8426961;28;20366;-71
2023/12/21 02:15:38;;;;;;;;;;;10.00;99.90;;;;;;8429914;28;19963;-71
2023/12/21 02:19:40;;;;;;;;;;;10.00;99.90;;;;;;8424874;28;19928;-71
2023/12/21 02:23:42;;;;;;;;;;;10.00;99.90;;;;;;8430599;28;19934;-71
2023/12/21 02:27:47;;;;;;;;;;;10.00;99.90;;;;;;8431299;28;19935;-71
2023/12/21 02:31:49;;;;;;;;;;;10.10;99.90;;;;;;8418753;28;19933;-71
2023/12/21 02:35:51;;;;;;;;;;;10.10;99.90;;;;;;8431242;28;19924;-71
2023/12/21 02:39:53;;;;;;;;;;;10.10;99.90;;;;;;8420235;28;20346;-71
2023/12/21 02:43:54;;;;;;;;;;;10.10;99.90;;;;;;8429943;28;19928;-71
2023/12/21 02:47:56;;;;;;;;;;;10.10;99.90;;;;;;8419059;28;19930;-71
2023/12/21 02:51:58;;;;;;;;;;;10.10;99.90;;;;;;8428611;28;20547;-71
2023/12/21 02:56:00;;;;;;;;;;;10.10;99.90;;;;;;8420028;28;19925;-71
2023/12/21 03:00:01;;;;;;;;;;;10.10;99.90;;;;;;8422530;28;19924;-71
2023/12/21 03:04:03;;;;;;;;;;;10.10;99.90;;;;;;8430730;28;20395;-71
2023/12/21 03:08:05;;;;;;;;;;;10.10;99.90;;;;;;8429344;28;20444;-71
2023/12/21 03:12:07;;;;;;;;;;;10.20;99.90;;;;;;8429845;28;20291;-71
2023/12/21 03:16:09;;;;;;;;;;;10.20;99.90;;;;;;8428300;28;19936;-71
2023/12/21 03:20:11;;;;;;;;;;;10.10;99.90;;;;;;8431480;28;19924;-71
2023/12/21 03:24:13;;;;;;;;;;;10.10;99.90;;;;;;8429917;28;20346;-71
2023/12/21 03:28:15;;;;;;;;;;;10.20;99.90;;;;;;8428857;28;19935;-71
2023/12/21 03:32:17;;;;;;;;;;;10.20;99.90;;;;;;8437941;28;19931;-71
2023/12/21 03:36:19;;;;;;;;;;;10.20;99.90;;;;;;8431369;28;19924;-71
2023/12/21 03:40:20;;;;;;;;;;;10.20;99.90;;;;;;8436759;28;19924;-71
2023/12/21 03:44:22;;;;;;;;;;;10.20;99.90;;;;;;8438832;28;19924;-71
2023/12/21 04:03:43;;;;;;;;;;;10.20;99.90;;;;;;8440227;28;19919;-71
2023/12/21 04:07:44;;;;;;;;;;;10.20;99.90;;;;;;8444695;28;19932;-71
2023/12/21 04:11:46;;;;;;;;;;;10.10;99.90;;;;;;8430160;28;20277;-71
2023/12/21 04:15:48;;;;;;;;;;;10.10;99.90;;;;;;8434414;28;20271;-71
2023/12/21 04:19:51;;;;;;;;;;;10.10;99.90;;;;;;8423946;28;20423;-71
2023/12/21 04:23:52;;;;;;;;;;;10.10;99.90;;;;;;8424066;28;19930;-71
2023/12/21 04:27:54;;;;;;;;;;;10.10;99.90;;;;;;8437568;28;19923;-71
2023/12/21 04:31:56;;;;;;;;;;;10.10;99.90;;;;;;8433013;28;20658;-71
2023/12/21 04:35:57;;;;;;;;;;;10.10;99.90;;;;;;8425796;28;20387;-71
2023/12/21 04:39:59;;;;;;;;;;;10.10;99.90;;;;;;8432521;28;19939;-71
2023/12/21 04:44:01;;;;;;;;;;;10.10;99.90;;;;;;8435149;28;19931;-71
2023/12/21 04:48:03;;;;;;;;;;;10.10;99.90;;;;;;8427198;28;19923;-71
2023/12/21 04:52:05;;;;;;;;;;;10.20;99.90;;;;;;8433077;28;19984;-71
2023/12/21 04:56:06;;;;;;;;;;;10.20;99.90;;;;;;8440716;28;20378;-71
2023/12/21 05:00:09;;;;;;;;;;;10.30;99.90;;;;;;8432868;28;20402;-71
2023/12/21 05:04:10;;;;;;;;;;;10.30;99.90;;;;;;8402153;28;20010;-71
2023/12/21 05:08:12;;;;;;;;;;;10.30;99.90;;;;;;8401447;28;19986;-71
2023/12/21 05:12:14;;;;;;;;;;;10.40;99.90;;;;;;8424577;28;19924;-71
2023/12/21 05:16:16;;;;;;;;;;;10.40;99.90;;;;;;8431283;28;20014;-71
2023/12/21 05:20:17;;;;;;;;;;;10.40;99.90;;;;;;8466437;27;19928;-70
2023/12/21 05:24:19;;;;;;;;;;;10.30;99.90;;;;;;8438305;28;19981;-71
2023/12/21 05:28:21;;;;;;;;;;;10.30;99.90;;;;;;8438957;28;19928;-71
2023/12/21 05:32:22;;;;;;;;;;;10.20;99.90;;;;;;8433731;28;20514;-71
2023/12/21 05:36:25;;;;;;;;;;;10.10;99.90;;;;;;8449121;28;19928;-71
2023/12/21 05:40:26;;;;;;;;;;;10.10;99.90;;;;;;8439752;28;19931;-71
2023/12/21 05:44:28;;;;;;;;;;;10.00;99.90;;;;;;8439727;28;20293;-71
2023/12/21 05:48:31;;;;;;;;;;;10.00;99.90;;;;;;8439739;28;20244;-71
2023/12/21 05:52:32;;;;;;;;;;;10.00;99.90;;;;;;8427007;28;19953;-71
2023/12/21 05:56:35;;;;;;;;;;;10.10;99.90;;;;;;8428989;28;19924;-71
2023/12/21 06:00:37;;;;;;;;;;;10.00;99.90;;;;;;8430869;28;19931;-71
2023/12/21 06:04:39;;;;;;;;;;;10.00;99.90;;;;;;8428981;28;20287;-71
2023/12/21 06:08:41;;;;;;;;;;;10.00;99.90;;;;;;8432285;28;19931;-71
2023/12/21 06:12:43;;;;;;;;;;;10.00;99.90;;;;;;8415910;28;20398;-71
2023/12/21 06:21:42;;;;;;;;;;;10.00;99.90;;;;;;8434683;28;20271;-71
2023/12/21 06:25:43;;;;;;;;;;;9.90;99.90;;;;;;8428932;28;19924;-71
2023/12/21 06:29:45;;;;;;;;;;;9.90;99.90;;;;;;8443645;28;20387;-71
2023/12/21 06:33:48;;;;;;;;;;;9.90;99.90;;;;;;8438441;28;19927;-71
2023/12/21 06:37:50;;;;;;;;;;;9.90;99.90;;;;;;8432253;28;19974;-71
2023/12/21 06:41:51;;;;;;;;;;;9.90;99.90;;;;;;8433467;28;19924;-71
2023/12/21 06:45:53;;;;;;;;;;;9.90;99.90;;;;;;8432003;28;19924;-71
2023/12/21 06:49:55;;;;;;;;;;;9.90;99.90;;;;;;8435302;28;19976;-71
2023/12/21 06:53:56;;;;;;;;;;;9.90;99.90;;;;;;8441324;28;19924;-71
2023/12/21 06:57:58;;;;;;;;;;;9.90;99.90;;;;;;8468682;27;19931;-71
2023/12/21 07:02:00;;;;;;;;;;;9.90;99.90;;;;;;8437984;28;19931;-71
2023/12/21 07:06:02;;;;;;;;;;;9.90;99.90;;;;;;8430306;28;19924;-71
2023/12/21 07:10:04;;;;;;;;;;;9.90;99.90;;;;;;8424561;28;19931;-71
2023/12/21 07:14:05;;;;;;;;;;;9.90;99.90;;;;;;8423940;28;19932;-71
2023/12/21 07:18:07;;;;;;;;;;;10.00;99.90;;;;;;8433536;28;19924;-71
2023/12/21 07:22:09;;;;;;;;;;;10.00;99.90;;;;;;8418888;28;20337;-71
2023/12/21 07:26:11;;;;;;;;;;;9.90;99.90;;;;;;8427556;28;19966;-71
2023/12/21 07:30:13;;;;;;;;;;;9.80;99.90;;;;;;8442780;28;19924;-71
2023/12/21 07:34:14;;;;;;;;;;;9.80;99.90;;;;;;8442755;28;19932;-72
2023/12/21 07:38:16;;;;;;;;;;;9.80;99.90;;;;;;8438338;28;19934;-71
2023/12/21 07:42:18;;;;;;;;;;;9.70;99.90;;;;;;8441074;28;19924;-71
2023/12/21 07:46:21;;;;;;;;;;;9.70;99.90;;;;;;8440471;28;19937;-71
2023/12/21 07:50:23;;;;;;;;;;;9.70;99.90;;;;;;8426426;28;20147;-71
2023/12/21 07:54:25;;;;;;;;;;;9.70;99.90;;;;;;8429114;28;19923;-71
2023/12/21 07:58:26;;;;;;;;;;;9.60;99.90;;;;;;8437288;28;19929;-71
2023/12/21 08:02:28;;;;;;;;;;;9.60;99.90;;;;;;8444802;28;19924;-71
2023/12/21 08:06:30;;;;;;;;;;;9.60;99.90;;;;;;8453374;28;19923;-72
2023/12/21 08:10:32;;;;;;;;;;;9.70;99.90;;;;;;8427369;28;19965;-71
2023/12/21 08:14:37;;;;;;;;;;;9.70;99.90;;;;;;8431068;28;20492;-71
2023/12/21 08:18:38;;;;;;;;;;;9.70;99.90;;;;;;8428052;28;20309;-72
2023/12/21 08:22:40;;;;;;;;;;;9.70;99.90;;;;;;8443999;28;19932;-71
2023/12/21 08:36:49;;;;;;;;;;;9.70;99.90;;;;;;8404935;28;20385;-72
2023/12/21 08:40:51;;;;;;;;;;;9.70;99.90;;;;;;8439053;28;19935;-72
2023/12/21 08:44:53;;;;;;;;;;;9.80;99.90;;;;;;8436642;28;19971;-72
2023/12/21 08:48:54;;;;;;;;;;;9.80;99.90;;;;;;8437201;28;19931;-72
2023/12/21 08:52:59;;;;;;;;;;;9.80;99.90;;;;;;8435916;28;20444;-72
2023/12/21 08:57:01;;;;;;;;;;;9.80;99.90;;;;;;8441047;28;19924;-71
2023/12/21 09:01:03;;;;;;;;;;;9.90;99.90;;;;;;8435206;28;19924;-72
2023/12/21 09:05:05;;;;;;;;;;;10.00;99.90;;;;;;8411349;28;19964;-72
2023/12/21 09:09:07;;;;;;;;;;;10.00;99.90;;;;;;8421118;28;20372;-72
2023/12/21 09:13:08;;;;;;;;;;;10.00;99.90;;;;;;8417506;28;19939;-72
2023/12/21 09:17:10;;;;;;;;;;;10.10;99.90;;;;;;8416429;28;19928;-72
2023/12/21 09:21:12;;;;;;;;;;;10.00;99.90;;;;;;8431191;28;20015;-72
2023/12/21 09:25:13;;;;;;;;;;;10.10;99.90;;;;;;8432137;28;20399;-72
2023/12/21 09:29:15;;;;;;;;;;;10.10;99.90;;;;;;8445758;28;20037;-72
2023/12/21 09:33:18;;;;;;;;;;;10.10;99.90;;;;;;8468735;27;19935;-72
2023/12/21 09:37:20;;;;;;;;;;;10.10;99.90;;;;;;8433891;28;19924;-72
2023/12/21 09:41:22;;;;;;;;;;;10.20;99.90;;;;;;8419879;28;19925;-72
2023/12/21 09:45:25;;;;;;;;;;;10.20;99.90;;;;;;8437420;28;19924;-72
2023/12/21 09:49:28;;;;;;;;;;;10.30;99.90;;;;;;8421163;28;19924;-72
2023/12/21 09:53:30;;;;;;;;;;;10.30;99.90;;;;;;8412364;28;19986;-72
2023/12/21 09:57:34;;;;;;;;;;;10.40;99.90;;;;;;8434502;28;19924;-72
2023/12/21 10:01:36;;;;;;;;;;;10.40;99.90;;;;;;8418211;28;20389;-72
2023/12/21 10:05:39;;;;;;;;;;;10.40;99.90;;;;;;8418381;28;20261;-71
2023/12/21 10:09:42;;;;;;;;;;;10.50;99.90;;;;;;8420261;28;19932;-71
2023/12/21 10:13:50;;;;;;;;;;;10.50;99.90;;;;;;8412624;28;19924;-72
2023/12/21 10:17:51;;;;;;;;;;;10.50;99.90;;;;;;8423703;28;20368;-71
2023/12/21 10:21:53;;;;;;;;;;;10.50;99.90;;;;;;8434140;28;19924;-71
2023/12/21 10:25:55;;;;;;;;;;;10.60;99.90;;;;;;8429793;28;19924;-71
2023/12/21 10:29:58;;;;;;;;;;;10.60;99.90;;;;;;8425238;28;19935;-71
2023/12/21 10:34:00;;;;;;;;;;;10.60;99.90;;;;;;8427539;28;20410;-71
2023/12/21 10:38:02;;;;;;;;;;;10.60;99.90;;;;;;8436672;28;19954;-71
2023/12/21 10:42:04;;;;;;;;;;;10.60;99.90;;;;;;8445407;28;19997;-71
2023/12/21 10:46:06;;;;;;;;;;;10.70;99.90;;;;;;8438577;28;19997;-71
2023/12/21 10:50:09;;;;;;;;;;;10.70;99.90;;;;;;8414608;28;19963;-72
2023/12/21 10:54:14;;;;;;;;;;;10.70;99.90;;;;;;8433324;28;20268;-71
2023/12/21 10:58:16;;;;;;;;;;;10.70;99.90;;;;;;8435532;28;19927;-71
2023/12/21 11:02:18;;;;;;;;;;;10.70;99.90;;;;;;8449071;28;19924;-71
2023/12/21 11:06:20;;;;;;;;;;;10.70;99.90;;;;;;8434261;28;19928;-71
2023/12/21 11:10:23;;;;;;;;;;;10.70;99.90;;;;;;8426875;28;19928;-72
2023/12/21 11:14:25;;;;;;;;;;;10.70;99.90;;;;;;8440203;28;19924;-71
2023/12/21 11:18:27;;;;;;;;;;;10.80;99.90;;;;;;8418545;28;20445;-71
2023/12/21 11:22:29;;;;;;;;;;;10.80;99.90;;;;;;8432224;28;20027;-71
2023/12/21 11:26:31;;;;;;;;;;;10.80;99.90;;;;;;8437169;28;20330;-71
2023/12/21 11:30:33;;;;;;;;;;;10.70;99.90;;;;;;8437705;28;19931;-71
2023/12/21 11:34:35;;;;;;;;;;;10.70;99.90;;;;;;8445280;28;19924;-71
2023/12/21 11:38:47;;;;;;;;;;;10.70;99.90;;;;;;8433890;28;19936;-71
2023/12/21 11:42:54;;;;;;;;;;;10.70;99.90;;;;;;8442860;28;19924;-71
2023/12/21 11:47:02;;;;;;;;;;;10.70;99.90;;;;;;8443408;28;19932;-71
2023/12/21 11:51:04;;;;;;;;;;;10.70;99.90;;;;;;8448605;28;19932;-71
2023/12/21 11:55:06;;;;;;;;;;;10.70;99.90;;;;;;8444483;28;20291;-71
2023/12/21 11:59:09;;;;;;;;;;;10.70;99.90;;;;;;8441429;28;19932;-71
2023/12/21 12:03:12;;;;;;;;;;;10.70;99.90;;;;;;8439783;28;20405;-71
2023/12/21 12:07:17;;;;;;;;;;;10.60;99.90;;;;;;8425371;28;19930;-71
2023/12/21 12:11:18;;;;;;;;;;;10.60;99.90;;;;;;8443439;28;20370;-71
2023/12/21 12:15:20;;;;;;;;;;;10.60;99.90;;;;;;8431419;28;19931;-71
2023/12/21 12:19:24;;;;;;;;;;;10.60;99.90;;;;;;8428120;28;19976;-71
2023/12/21 12:28:30;;;;;;;;;;;10.70;99.90;;;;;;8427035;28;20370;-71
2023/12/21 12:32:32;;;;;;;;;;;10.70;99.90;;;;;;8440732;28;19924;-71
2023/12/21 12:36:33;;;;;;;;;;;10.80;99.90;;;;;;8440152;28;19932;-72
2023/12/21 12:40:35;;;;;;;;;;;10.80;99.90;;;;;;8426215;28;20310;-71
2023/12/21 12:44:37;;;;;;;;;;;10.80;99.90;;;;;;8436397;28;20307;-71
2023/12/21 12:48:39;;;;;;;;;;;10.80;99.90;;;;;;8439608;28;20394;-71
2023/12/21 12:52:41;;;;;;;;;;;10.70;99.90;;;;;;8434435;28;20367;-71
2023/12/21 12:56:51;;;;;;;;;;;10.70;99.90;;;;;;8423690;28;19971;-71
2023/12/21 13:16:03;;;;;;;;;;;10.80;99.90;;;;;;8434568;28;19927;-71
2023/12/21 13:20:05;;;;;;;;;;;10.80;99.90;;;;;;8427828;28;19927;-71
2023/12/21 13:24:07;;;;;;;;;;;10.80;99.90;;;;;;8427559;28;20339;-71
2023/12/21 13:28:09;;;;;;;;;;;10.80;99.90;;;;;;8428113;28;19932;-71
2023/12/21 13:32:18;;;;;;;;;;;10.90;99.90;;;;;;8417536;28;19932;-71
2023/12/21 13:36:20;;;;;;;;;;;10.90;99.90;;;;;;8428735;28;20376;-71
2023/12/21 13:40:22;;;;;;;;;;;10.90;99.90;;;;;;8427646;28;19931;-71
2023/12/21 13:44:30;;;;;;;;;;;11.00;99.90;;;;;;8435473;28;20379;-71
2023/12/21 13:48:33;;;;;;;;;;;11.10;99.90;;;;;;8432640;28;19924;-71
2023/12/21 13:52:35;;;;;;;;;;;11.10;99.90;;;;;;8427507;28;19930;-71
2023/12/21 13:56:36;;;;;;;;;;;11.10;99.90;;;;;;8424025;28;19932;-71
2023/12/21 14:00:38;;;;;;;;;;;11.20;99.90;;;;;;8434000;28;19924;-71
2023/12/21 14:04:40;;;;;;;;;;;11.20;99.90;;;;;;8430594;28;20000;-71
2023/12/21 14:08:42;;;;;;;;;;;11.20;99.90;;;;;;8425497;28;19981;-71
2023/12/21 14:12:44;;;;;;;;;;;11.20;99.90;;;;;;8424425;28;19924;-71
2023/12/21 14:16:45;;;;;;;;;;;11.30;99.90;;;;;;8432169;28;19928;-71
2023/12/21 14:20:51;;;;;;;;;;;11.30;99.90;;;;;;8425750;28;19977;-71
2023/12/21 14:24:53;;;;;;;;;;;11.30;99.90;;;;;;8434522;28;19923;-71
2023/12/21 14:28:54;;;;;;;;;;;11.30;99.90;;;;;;8429157;28;19924;-71
2023/12/21 14:32:58;;;;;;;;;;;11.30;99.90;;;;;;8437947;28;19934;-71
2023/12/21 14:37:00;;;;;;;;;;;11.30;99.90;;;;;;8427532;28;19931;-72
2023/12/21 14:41:01;;;;;;;;;;;11.20;99.90;;;;;;8425210;28;19989;-71
2023/12/21 14:45:03;;;;;;;;;;;11.20;99.90;;;;;;8423335;28;19924;-71
2023/12/21 14:49:06;;;;;;;;;;;11.20;99.90;;;;;;8426033;28;20419;-71
2023/12/21 14:53:07;;;;;;;;;;;11.10;99.90;;;;;;8426993;28;19932;-72
2023/12/21 14:57:09;;;;;;;;;;;11.10;99.90;;;;;;8432714;28;19943;-71
2023/12/21 15:01:11;;;;;;;;;;;11.10;99.90;;;;;;8419011;28;19923;-71
2023/12/21 15:05:12;;;;;;;;;;;11.10;99.90;;;;;;8438345;28;19967;-71
2023/12/21 15:09:14;;;;;;;;;;;11.10;99.90;;;;;;8442692;28;19924;-71
2023/12/21 15:13:16;;;;;;;;;;;11.10;99.90;;;;;;8432185;28;19928;-71
2023/12/21 15:17:19;;;;;;;;;;;11.10;99.90;;;;;;8432784;28;19927;-71
2023/12/21 15:21:21;;;;;;;;;;;11.00;99.90;;;;;;8444869;28;20402;-71
2023/12/21 15:25:23;;;;;;;;;;;11.10;99.90;;;;;;8435013;28;20310;-72
2023/12/21 15:29:26;;;;;;;;;;;11.10;99.90;;;;;;8439636;28;19924;-71
2023/12/21 15:33:28;;;;;;;;;;;11.10;99.90;;;;;;8447461;28;20309;-71
2023/12/21 15:37:30;;;;;;;;;;;11.10;99.90;;;;;;8435140;28;20387;-71
2023/12/21 15:41:32;;;;;;;;;;;11.10;99.90;;;;;;8434313;28;19930;-71
2023/12/21 15:45:34;;;;;;;;;;;11.10;99.90;;;;;;8420655;28;20383;-71
2023/12/21 15:49:35;;;;;;;;;;;11.10;99.90;;;;;;8425429;28;19932;-71
2023/12/21 15:53:37;;;;;;;;;;;11.00;99.90;;;;;;8414683;28;19935;-71
2023/12/21 15:57:39;;;;;;;;;;;11.10;99.90;;;;;;8418684;28;19932;-71
2023/12/21 16:01:41;;;;;;;;;;;11.10;99.90;;;;;;8440721;28;20004;-71
2023/12/21 16:05:43;;;;;;;;;;;11.10;99.90;;;;;;8418614;28;19932;-71
2023/12/21 16:09:47;;;;;;;;;;;11.00;99.90;;;;;;8420637;28;19940;-71
2023/12/21 16:13:49;;;;;;;;;;;11.00;99.90;;;;;;8418742;28;19935;-71
2023/12/21 16:17:50;;;;;;;;;;;11.00;99.90;;;;;;8412839;28;19935;-71
2023/12/21 16:21:52;;;;;;;;;;;10.80;99.90;;;;;;8421749;28;19985;-71
2023/12/21 16:25:54;;;;;;;;;;;10.80;99.90;;;;;;8410818;28;19932;-71
2023/12/21 16:29:56;;;;;;;;;;;10.80;99.90;;;;;;8410461;28;20344;-71
2023/12/21 16:33:57;;;;;;;;;;;10.80;99.90;;;;;;8443281;28;19976;-71
2023/12/21 16:37:59;;;;;;;;;;;10.80;99.90;;;;;;8442101;28;19990;-71
2023/12/21 16:42:04;;;;;;;;;;;10.30;99.90;;;;;;8429871;28;19970;-71
2023/12/21 16:46:06;;;;;;;;;;;9.70;99.90;;;;;;8441302;28;19924;-71
2023/12/21 16:50:08;;;;;;;;;;;9.40;99.90;;;;;;8437568;28;19974;-71
2023/12/21 16:54:09;;;;;;;;;;;9.30;99.90;;;;;;8429560;28;19997;-71
2023/12/21 16:58:11;;;;;;;;;;;9.30;99.90;;;;;;8439633;28;19935;-71
2023/12/21 17:02:13;;;;;;;;;;;9.40;99.90;;;;;;8416831;28;20333;-71
2023/12/21 17:06:15;;;;;;;;;;;9.20;99.90;;;;;;8422993;28;19932;-71
2023/12/21 17:10:17;;;;;;;;;;;8.50;99.90;;;;;;8422988;28;19969;-71
2023/12/21 17:14:18;;;;;;;;;;;7.90;99.90;;;;;;8439227;28;19924;-71
2023/12/21 17:18:21;;;;;;;;;;;7.60;99.90;;;;;;8442385;28;19990;-71
2023/12/21 17:22:22;;;;;;;;;;;7.40;99.90;;;;;;8433457;28;19928;-71
2023/12/21 17:26:24;;;;;;;;;;;7.30;99.90;;;;;;8421394;28;19928;-71
2023/12/21 17:30:26;;;;;;;;;;;7.20;99.90;;;;;;8427086;28;19932;-71
2023/12/21 17:34:28;;;;;;;;;;;7.20;99.90;;;;;;8426242;28;19954;-71
2023/12/21 17:38:29;;;;;;;;;;;7.00;99.90;;;;;;8437062;28;20064;-71
2023/12/21 17:42:31;;;;;;;;;;;7.00;99.90;;;;;;8427257;28;20375;-71
2023/12/21 17:46:33;;;;;;;;;;;7.00;99.90;;;;;;8420810;28;19947;-71
2023/12/21 17:50:35;;;;;;;;;;;7.00;99.90;;;;;;8422744;28;19930;-71
2023/12/21 17:54:36;;;;;;;;;;;7.00;99.90;;;;;;8426373;28;19966;-71
2023/12/21 17:58:38;;;;;;;;;;;7.00;99.90;;;;;;8431301;28;19955;-71
2023/12/21 18:02:40;;;;;;;;;;;6.90;99.90;;;;;;8431527;28;20239;-71
2023/12/21 18:06:43;;;;;;;;;;;7.00;99.90;;;;;;8432233;28;19924;-71
2023/12/21 18:10:48;;;;;;;;;;;7.00;99.90;;;;;;8426752;28;19974;-71
2023/12/21 18:14:51;;;;;;;;;;;7.00;99.90;;;;;;8454798;27;20290;-71
2023/12/21 18:18:52;;;;;;;;;;;6.90;99.90;;;;;;8425903;28;19969;-71
2023/12/21 18:22:54;;;;;;;;;;;6.80;99.90;;;;;;8418254;28;19924;-71
2023/12/21 18:26:56;;;;;;;;;;;6.80;99.90;;;;;;8432380;28;19924;-71
2023/12/21 18:30:57;;;;;;;;;;;6.90;99.90;;;;;;8436347;28;20370;-71
2023/12/21 18:34:59;;;;;;;;;;;6.90;99.90;;;;;;8427250;28;20299;-71
2023/12/21 18:39:03;;;;;;;;;;;6.90;99.90;;;;;;8437310;28;20415;-71
2023/12/21 18:43:05;;;;;;;;;;;7.00;99.90;;;;;;8428061;28;19932;-71
2023/12/21 18:47:07;;;;;;;;;;;7.10;99.90;;;;;;8433475;28;20408;-71
2023/12/21 18:51:08;;;;;;;;;;;7.20;99.90;;;;;;8438023;28;19924;-71
2023/12/21 18:55:10;;;;;;;;;;;7.30;99.90;;;;;;8431364;28;19928;-71
2023/12/21 18:59:12;;;;;;;;;;;7.50;99.90;;;;;;8420888;28;19985;-71
2023/12/21 19:03:13;;;;;;;;;;;7.60;99.90;;;;;;8429927;28;20383;-71
2023/12/21 19:07:15;;;;;;;;;;;7.70;99.90;;;;;;8456138;27;19923;-71
2023/12/21 19:11:17;;;;;;;;;;;7.80;99.90;;;;;;8431823;28;19924;-71
2023/12/21 19:15:19;;;;;;;;;;;7.80;99.90;;;;;;8429473;28;19924;-71
2023/12/21 19:19:23;;;;;;;;;;;7.80;99.90;;;;;;8432651;28;19950;-71
2023/12/21 19:23:26;;;;;;;;;;;7.90;99.90;;;;;;8446940;28;19957;-71
2023/12/21 19:27:27;;;;;;;;;;;7.90;99.90;;;;;;8430719;28;19924;-71
2023/12/21 19:31:29;;;;;;;;;;;7.90;99.90;;;;;;8461388;27;19993;-71
2023/12/21 19:35:31;;;;;;;;;;;7.80;99.90;;;;;;8426113;28;20359;-71
2023/12/21 19:39:33;;;;;;;;;;;7.80;99.90;;;;;;8423268;28;20347;-71
2023/12/21 19:43:34;;;;;;;;;;;7.70;99.90;;;;;;8429657;28;19932;-71
2023/12/21 19:47:36;;;;;;;;;;;7.70;99.90;;;;;;8438042;28;19924;-71
2023/12/21 19:51:38;;;;;;;;;;;7.70;99.90;;;;;;8426107;28;19924;-71
2023/12/21 19:55:40;;;;;;;;;;;7.80;99.90;;;;;;8438138;28;19923;-71
2023/12/21 19:59:42;;;;;;;;;;;7.80;99.90;;;;;;8440800;28;19924;-71
2023/12/21 20:03:43;;;;;;;;;;;7.80;99.90;;;;;;8439684;28;19927;-71
2023/12/21 20:07:45;;;;;;;;;;;7.80;99.90;;;;;;8436581;28;19924;-71
2023/12/21 20:11:47;;;;;;;;;;;7.80;99.90;;;;;;8436576;28;19971;-71
2023/12/21 20:15:48;;;;;;;;;;;7.90;99.90;;;;;;8450311;28;19931;-71
2023/12/21 20:19:50;;;;;;;;;;;7.90;99.90;;;;;;8432474;28;19924;-71
2023/12/21 20:23:52;;;;;;;;;;;7.80;99.90;;;;;;8440424;28;20337;-71
2023/12/21 20:27:54;;;;;;;;;;;7.80;99.90;;;;;;8432998;28;19969;-71
2023/12/21 20:31:56;;;;;;;;;;;7.70;99.90;;;;;;8437733;28;19931;-71
2023/12/21 20:35:58;;;;;;;;;;;7.70;99.90;;;;;;8435575;28;19924;-71
2023/12/21 20:39:59;;;;;;;;;;;7.70;99.90;;;;;;8423039;28;19931;-71
2023/12/21 20:44:01;;;;;;;;;;;7.70;99.90;;;;;;8446737;28;20383;-71
2023/12/21 20:48:03;;;;;;;;;;;7.80;99.90;;;;;;8444855;28;19977;-71
2023/12/21 20:52:05;;;;;;;;;;;7.80;99.90;;;;;;8461253;27;19924;-71
2023/12/21 20:56:06;;;;;;;;;;;7.90;99.90;;;;;;8446394;28;19953;-71
2023/12/21 21:00:09;;;;;;;;;;;7.90;99.90;;;;;;8430655;28;19990;-71
2023/12/21 21:04:10;;;;;;;;;;;7.90;99.90;;;;;;8433727;28;19931;-71
2023/12/21 21:08:12;;;;;;;;;;;7.90;99.90;;;;;;8436864;28;19932;-71
2023/12/21 21:12:15;;;;;;;;;;;7.90;99.90;;;;;;8461276;27;19924;-71
2023/12/21 21:16:20;;;;;;;;;;;7.70;99.90;;;;;;8430240;28;19928;-71
2023/12/21 21:20:23;;;;;;;;;;;7.60;99.90;;;;;;8437026;28;19934;-71
2023/12/21 21:24:25;;;;;;;;;;;7.60;99.90;;;;;;8434203;28;19924;-71
2023/12/21 21:28:27;;;;;;;;;;;7.50;99.90;;;;;;8444897;28;20433;-71
2023/12/21 21:32:28;;;;;;;;;;;7.30;99.90;;;;;;8427619;28;19930;-71
2023/12/21 21:36:30;;;;;;;;;;;7.00;99.90;;;;;;8436465;28;19962;-71
2023/12/21 21:40:32;;;;;;;;;;;6.70;99.90;;;;;;8438503;28;20375;-71
2023/12/21 21:44:34;;;;;;;;;;;6.50;99.90;;;;;;8442577;28;19974;-71
2023/12/21 21:48:37;;;;;;;;;;;6.40;99.90;;;;;;8435476;28;19931;-71
2023/12/21 21:52:38;;;;;;;;;;;6.30;99.90;;;;;;8438129;28;20444;-71
2023/12/21 21:56:40;;;;;;;;;;;6.20;99.90;;;;;;8443333;28;19927;-71
2023/12/21 22:00:42;;;;;;;;;;;6.20;99.90;;;;;;8434313;28;19928;-71
2023/12/21 22:04:43;;;;;;;;;;;6.20;99.90;;;;;;8434083;28;19934;-71
2023/12/21 22:08:45;;;;;;;;;;;6.20;99.90;;;;;;8429242;28;20398;-71
2023/12/21 22:12:47;;;;;;;;;;;6.20;99.90;;;;;;8423759;28;19925;-71
2023/12/21 22:16:49;;;;;;;;;;;6.20;99.90;;;;;;8461034;27;19924;-71
2023/12/21 22:20:51;;;;;;;;;;;6.30;99.90;;;;;;8435025;28;19981;-71
2023/12/21 22:24:53;;;;;;;;;;;6.30;99.90;;;;;;8469853;27;19931;-71
2023/12/21 22:28:55;;;;;;;;;;;6.30;99.90;;;;;;8443837;28;19931;-71
2023/12/21 22:32:58;;;;;;;;;;;6.30;99.90;;;;;;8439248;28;19976;-71
2023/12/21 22:37:01;;;;;;;;;;;6.30;99.90;;;;;;8434639;28;19924;-71
2023/12/21 22:41:05;;;;;;;;;;;6.30;99.90;;;;;;8435399;28;19977;-72
2023/12/21 22:45:07;;;;;;;;;;;6.40;99.90;;;;;;8429307;28;19996;-71
2023/12/21 22:49:09;;;;;;;;;;;6.40;99.90;;;;;;8425837;28;20264;-71
2023/12/21 22:53:11;;;;;;;;;;;6.40;99.90;;;;;;8430514;28;19969;-71
2023/12/21 22:57:12;;;;;;;;;;;6.40;99.90;;;;;;8435858;28;19939;-71
2023/12/21 23:01:15;;;;;;;;;;;6.50;99.90;;;;;;8435134;28;19924;-71
2023/12/21 23:05:17;;;;;;;;;;;6.50;99.90;;;;;;8427675;28;19924;-71
2023/12/21 23:09:19;;;;;;;;;;;6.60;99.90;;;;;;8431917;28;19993;-71
2023/12/21 23:13:21;;;;;;;;;;;6.60;99.90;;;;;;8417155;28;19928;-71
2023/12/21 23:17:23;;;;;;;;;;;6.70;99.90;;;;;;8427816;28;19928;-71
2023/12/21 23:21:24;;;;;;;;;;;6.80;99.90;;;;;;8423262;28;20294;-71
2023/12/21 23:25:26;;;;;;;;;;;6.80;99.90;;;;;;8423968;28;20274;-71
2023/12/21 23:29:28;;;;;;;;;;;6.90;99.90;;;;;;8428971;28;19924;-71
2023/12/21 23:33:29;;;;;;;;;;;6.90;99.90;;;;;;8434532;28;19924;-71
2023/12/21 23:37:31;;;;;;;;;;;6.90;99.90;;;;;;8431811;28;19930;-71
2023/12/21 23:41:33;;;;;;;;;;;6.80;99.90;;;;;;8441775;28;19969;-71
2023/12/21 23:45:34;;;;;;;;;;;6.80;99.90;;;;;;8443924;28;20284;-71
2023/12/21 23:49:36;;;;;;;;;;;6.80;99.90;;;;;;8430237;28;19924;-71
2023/12/21 23:53:38;;;;;;;;;;;6.80;99.90;;;;;;8441233;28;19928;-71
2023/12/21 23:57:39;;;;;;;;;;;6.80;99.90;;;;;;8437734;28;19928;-71
